Weather at Baltimore/Washington International Thurgood Marshall Airport

Public forecast

Using degrees Fahrenheit for public forecast. Weather courtesy of forecast.io.

Current aviation weather report (METAR) for Baltimore/Washington International Thurgood Marshall Airport

Retrieved 2022/07/06 02:54 UTC (10 minutes ago):

KBWI 060254Z 00000KT 9SM SCT250 26/24 A2985 RMK AO2 SLP108 T02560239 56005

Aviation forecast (TAF) for Baltimore/Washington International Thurgood Marshall Airport

Retrieved 2022-07-06 00:42 UTC (2 hours ago):

TAF KBWI 052340Z 0600/0706 VRB03KT P6SM SCT010 BKN250 FM060500 24005KT P6SM BKN060 BKN250 FM061500 29004KT P6SM FEW040 SCT250 FM061800 32006KT P6SM SHRA FEW040 SCT150 FM070100 00000KT P6SM BKN100